sensor_id;sensor_type;location;lat;lon;timestamp;temperature;humidity
12977;DHT22;6553;48.412;9.514;2023-04-25T00:01:33;18.60;52.80
12977;DHT22;6553;48.412;9.514;2023-04-25T00:04:01;18.60;52.70
12977;DHT22;6553;48.412;9.514;2023-04-25T00:06:28;18.60;52.70
12977;DHT22;6553;48.412;9.514;2023-04-25T00:08:55;18.60;52.70
12977;DHT22;6553;48.412;9.514;2023-04-25T00:11:22;18.60;52.80
12977;DHT22;6553;48.412;9.514;2023-04-25T00:13:48;18.60;52.80
12977;DHT22;6553;48.412;9.514;2023-04-25T00:16:16;18.60;52.80
12977;DHT22;6553;48.412;9.514;2023-04-25T00:18:42;18.60;52.80
12977;DHT22;6553;48.412;9.514;2023-04-25T00:21:08;18.60;52.80
12977;DHT22;6553;48.412;9.514;2023-04-25T00:23:35;18.60;52.80
12977;DHT22;6553;48.412;9.514;2023-04-25T00:26:02;18.60;52.80
12977;DHT22;6553;48.412;9.514;2023-04-25T00:28:28;18.60;52.80
12977;DHT22;6553;48.412;9.514;2023-04-25T00:30:54;18.60;52.80
12977;DHT22;6553;48.412;9.514;2023-04-25T00:33:19;18.60;52.80
12977;DHT22;6553;48.412;9.514;2023-04-25T00:35:46;18.60;52.80
12977;DHT22;6553;48.412;9.514;2023-04-25T00:38:12;18.60;52.80
12977;DHT22;6553;48.412;9.514;2023-04-25T00:40:38;18.60;52.80
12977;DHT22;6553;48.412;9.514;2023-04-25T00:43:04;18.60;52.80
12977;DHT22;6553;48.412;9.514;2023-04-25T00:45:30;18.60;52.80
12977;DHT22;6553;48.412;9.514;2023-04-25T00:47:56;18.60;52.80
12977;DHT22;6553;48.412;9.514;2023-04-25T00:50:23;18.60;52.80
12977;DHT22;6553;48.412;9.514;2023-04-25T00:52:49;18.60;52.80
12977;DHT22;6553;48.412;9.514;2023-04-25T00:55:15;18.60;52.80
12977;DHT22;6553;48.412;9.514;2023-04-25T00:57:41;18.60;53.40
12977;DHT22;6553;48.412;9.514;2023-04-25T01:00:08;18.60;52.80
12977;DHT22;6553;48.412;9.514;2023-04-25T01:02:36;18.60;52.80
12977;DHT22;6553;48.412;9.514;2023-04-25T01:05:03;18.60;52.80
12977;DHT22;6553;48.412;9.514;2023-04-25T01:07:29;18.60;52.80
12977;DHT22;6553;48.412;9.514;2023-04-25T01:09:56;18.60;52.80
12977;DHT22;6553;48.412;9.514;2023-04-25T01:12:22;18.60;52.80
12977;DHT22;6553;48.412;9.514;2023-04-25T01:14:48;18.60;52.80
12977;DHT22;6553;48.412;9.514;2023-04-25T01:17:15;18.50;52.70
12977;DHT22;6553;48.412;9.514;2023-04-25T01:19:41;18.60;52.80
12977;DHT22;6553;48.412;9.514;2023-04-25T01:22:07;18.60;52.80
12977;DHT22;6553;48.412;9.514;2023-04-25T01:24:35;18.60;52.80
12977;DHT22;6553;48.412;9.514;2023-04-25T01:27:02;18.60;52.80
12977;DHT22;6553;48.412;9.514;2023-04-25T01:29:29;18.60;52.80
12977;DHT22;6553;48.412;9.514;2023-04-25T01:31:56;18.60;52.80
12977;DHT22;6553;48.412;9.514;2023-04-25T01:34:23;18.60;52.80
12977;DHT22;6553;48.412;9.514;2023-04-25T01:36:50;18.60;52.80
12977;DHT22;6553;48.412;9.514;2023-04-25T01:39:17;18.60;52.80
12977;DHT22;6553;48.412;9.514;2023-04-25T01:41:47;18.60;52.80
12977;DHT22;6553;48.412;9.514;2023-04-25T01:44:14;18.60;52.80
12977;DHT22;6553;48.412;9.514;2023-04-25T01:46:40;18.60;52.80
12977;DHT22;6553;48.412;9.514;2023-04-25T01:49:06;18.60;52.80
12977;DHT22;6553;48.412;9.514;2023-04-25T01:51:32;18.60;52.80
12977;DHT22;6553;48.412;9.514;2023-04-25T01:53:58;18.60;52.80
12977;DHT22;6553;48.412;9.514;2023-04-25T01:56:25;18.60;52.80
12977;DHT22;6553;48.412;9.514;2023-04-25T01:58:51;18.50;52.70
12977;DHT22;6553;48.412;9.514;2023-04-25T02:01:32;18.50;52.80
12977;DHT22;6553;48.412;9.514;2023-04-25T02:04:12;18.60;52.80
12977;DHT22;6553;48.412;9.514;2023-04-25T02:06:39;18.60;52.80
12977;DHT22;6553;48.412;9.514;2023-04-25T02:09:06;18.60;52.80
12977;DHT22;6553;48.412;9.514;2023-04-25T02:11:32;18.60;52.80
12977;DHT22;6553;48.412;9.514;2023-04-25T02:14:33;18.60;52.80
12977;DHT22;6553;48.412;9.514;2023-04-25T02:17:05;18.60;52.80
12977;DHT22;6553;48.412;9.514;2023-04-25T02:19:32;18.60;52.80
12977;DHT22;6553;48.412;9.514;2023-04-25T02:21:58;18.60;52.80
12977;DHT22;6553;48.412;9.514;2023-04-25T02:24:24;18.60;52.80
12977;DHT22;6553;48.412;9.514;2023-04-25T02:26:50;18.60;52.80
12977;DHT22;6553;48.412;9.514;2023-04-25T02:29:16;18.60;52.80
12977;DHT22;6553;48.412;9.514;2023-04-25T02:31:42;18.50;52.70
12977;DHT22;6553;48.412;9.514;2023-04-25T02:34:08;18.60;52.80
12977;DHT22;6553;48.412;9.514;2023-04-25T02:36:36;18.60;52.80
12977;DHT22;6553;48.412;9.514;2023-04-25T02:39:02;18.60;52.80
12977;DHT22;6553;48.412;9.514;2023-04-25T02:41:28;18.60;52.80
12977;DHT22;6553;48.412;9.514;2023-04-25T02:43:54;18.50;52.80
12977;DHT22;6553;48.412;9.514;2023-04-25T02:46:20;18.50;52.80
12977;DHT22;6553;48.412;9.514;2023-04-25T02:48:46;18.60;52.80
12977;DHT22;6553;48.412;9.514;2023-04-25T02:51:12;18.60;52.80
12977;DHT22;6553;48.412;9.514;2023-04-25T02:53:38;18.60;52.80
12977;DHT22;6553;48.412;9.514;2023-04-25T02:56:04;18.60;52.80
12977;DHT22;6553;48.412;9.514;2023-04-25T02:58:30;18.50;52.80
12977;DHT22;6553;48.412;9.514;2023-04-25T03:00:55;18.50;52.80
12977;DHT22;6553;48.412;9.514;2023-04-25T03:03:21;18.60;52.90
12977;DHT22;6553;48.412;9.514;2023-04-25T03:05:51;18.60;52.80
12977;DHT22;6553;48.412;9.514;2023-04-25T03:08:22;18.60;52.80
12977;DHT22;6553;48.412;9.514;2023-04-25T03:10:48;18.50;52.80
12977;DHT22;6553;48.412;9.514;2023-04-25T03:13:16;18.50;52.80
12977;DHT22;6553;48.412;9.514;2023-04-25T03:15:43;18.50;52.70
12977;DHT22;6553;48.412;9.514;2023-04-25T03:18:09;18.60;52.80
12977;DHT22;6553;48.412;9.514;2023-04-25T03:20:34;18.60;52.80
12977;DHT22;6553;48.412;9.514;2023-04-25T03:23:00;18.50;52.80
12977;DHT22;6553;48.412;9.514;2023-04-25T03:25:28;18.50;52.80
12977;DHT22;6553;48.412;9.514;2023-04-25T03:27:53;18.50;52.80
12977;DHT22;6553;48.412;9.514;2023-04-25T03:30:19;18.50;52.80
12977;DHT22;6553;48.412;9.514;2023-04-25T03:32:45;18.60;52.80
12977;DHT22;6553;48.412;9.514;2023-04-25T03:35:15;18.60;52.90
12977;DHT22;6553;48.412;9.514;2023-04-25T03:37:41;18.60;52.90
12977;DHT22;6553;48.412;9.514;2023-04-25T03:40:11;18.60;52.80
12977;DHT22;6553;48.412;9.514;2023-04-25T03:42:56;18.60;52.80
12977;DHT22;6553;48.412;9.514;2023-04-25T03:45:23;18.50;52.80
12977;DHT22;6553;48.412;9.514;2023-04-25T03:47:49;18.50;52.80
12977;DHT22;6553;48.412;9.514;2023-04-25T03:50:15;18.50;52.80
12977;DHT22;6553;48.412;9.514;2023-04-25T03:52:40;18.50;52.80
12977;DHT22;6553;48.412;9.514;2023-04-25T03:55:08;18.50;52.80
12977;DHT22;6553;48.412;9.514;2023-04-25T03:57:34;18.50;52.80
12977;DHT22;6553;48.412;9.514;2023-04-25T04:00:00;18.60;52.80
12977;DHT22;6553;48.412;9.514;2023-04-25T04:02:28;18.50;52.80
12977;DHT22;6553;48.412;9.514;2023-04-25T04:04:54;18.50;52.80
12977;DHT22;6553;48.412;9.514;2023-04-25T04:07:21;18.50;52.80
12977;DHT22;6553;48.412;9.514;2023-04-25T04:09:50;18.50;52.80
12977;DHT22;6553;48.412;9.514;2023-04-25T04:12:25;18.60;52.80
12977;DHT22;6553;48.412;9.514;2023-04-25T04:14:51;18.50;52.80
12977;DHT22;6553;48.412;9.514;2023-04-25T04:17:17;18.50;52.80
12977;DHT22;6553;48.412;9.514;2023-04-25T04:19:43;18.50;52.80
12977;DHT22;6553;48.412;9.514;2023-04-25T04:22:17;18.60;52.90
12977;DHT22;6553;48.412;9.514;2023-04-25T04:24:42;18.50;52.80
12977;DHT22;6553;48.412;9.514;2023-04-25T04:27:14;18.50;52.80
12977;DHT22;6553;48.412;9.514;2023-04-25T04:29:46;18.50;52.80
12977;DHT22;6553;48.412;9.514;2023-04-25T04:32:22;18.50;52.80
12977;DHT22;6553;48.412;9.514;2023-04-25T04:34:49;18.50;52.80
12977;DHT22;6553;48.412;9.514;2023-04-25T04:37:17;18.50;52.80
12977;DHT22;6553;48.412;9.514;2023-04-25T04:39:45;18.50;52.80
12977;DHT22;6553;48.412;9.514;2023-04-25T04:42:23;18.60;52.90
12977;DHT22;6553;48.412;9.514;2023-04-25T04:45:17;18.50;52.80
12977;DHT22;6553;48.412;9.514;2023-04-25T04:48:06;18.50;52.80
12977;DHT22;6553;48.412;9.514;2023-04-25T04:50:32;18.50;52.80
12977;DHT22;6553;48.412;9.514;2023-04-25T04:53:11;18.50;52.80
12977;DHT22;6553;48.412;9.514;2023-04-25T04:55:37;18.50;52.80
12977;DHT22;6553;48.412;9.514;2023-04-25T04:58:15;18.50;52.80
12977;DHT22;6553;48.412;9.514;2023-04-25T05:00:53;18.50;52.70
12977;DHT22;6553;48.412;9.514;2023-04-25T05:03:37;18.50;52.80
12977;DHT22;6553;48.412;9.514;2023-04-25T05:06:25;18.50;52.70
12977;DHT22;6553;48.412;9.514;2023-04-25T05:09:11;18.50;52.80
12977;DHT22;6553;48.412;9.514;2023-04-25T05:11:53;18.60;52.90
12977;DHT22;6553;48.412;9.514;2023-04-25T05:14:34;18.50;52.80
12977;DHT22;6553;48.412;9.514;2023-04-25T05:17:23;18.60;52.80
12977;DHT22;6553;48.412;9.514;2023-04-25T05:20:03;18.50;52.70
12977;DHT22;6553;48.412;9.514;2023-04-25T05:22:49;18.50;52.70
12977;DHT22;6553;48.412;9.514;2023-04-25T05:25:23;18.60;52.80
12977;DHT22;6553;48.412;9.514;2023-04-25T05:28:18;18.60;52.80
12977;DHT22;6553;48.412;9.514;2023-04-25T05:30:52;18.50;52.80
12977;DHT22;6553;48.412;9.514;2023-04-25T05:33:27;18.60;52.80
12977;DHT22;6553;48.412;9.514;2023-04-25T05:35:53;18.60;52.80
12977;DHT22;6553;48.412;9.514;2023-04-25T05:38:20;18.60;52.90
12977;DHT22;6553;48.412;9.514;2023-04-25T05:41:08;18.60;52.80
12977;DHT22;6553;48.412;9.514;2023-04-25T05:44:00;18.60;52.90
12977;DHT22;6553;48.412;9.514;2023-04-25T05:46:46;18.60;53.40
12977;DHT22;6553;48.412;9.514;2023-04-25T05:49:22;18.60;52.80
12977;DHT22;6553;48.412;9.514;2023-04-25T05:51:57;18.60;52.80
12977;DHT22;6553;48.412;9.514;2023-04-25T05:54:41;18.60;52.80
12977;DHT22;6553;48.412;9.514;2023-04-25T05:57:07;18.60;52.80
12977;DHT22;6553;48.412;9.514;2023-04-25T05:59:33;18.60;52.80
12977;DHT22;6553;48.412;9.514;2023-04-25T06:01:59;18.60;52.80
12977;DHT22;6553;48.412;9.514;2023-04-25T06:04:26;18.60;52.80
12977;DHT22;6553;48.412;9.514;2023-04-25T06:06:53;18.60;52.80
12977;DHT22;6553;48.412;9.514;2023-04-25T06:09:21;18.60;52.70
12977;DHT22;6553;48.412;9.514;2023-04-25T06:11:47;18.60;52.80
12977;DHT22;6553;48.412;9.514;2023-04-25T06:14:13;18.60;52.80
12977;DHT22;6553;48.412;9.514;2023-04-25T06:16:44;18.70;52.80
12977;DHT22;6553;48.412;9.514;2023-04-25T06:19:10;18.70;52.80
12977;DHT22;6553;48.412;9.514;2023-04-25T06:21:36;18.70;52.80
12977;DHT22;6553;48.412;9.514;2023-04-25T06:24:02;18.70;52.80
12977;DHT22;6553;48.412;9.514;2023-04-25T06:26:28;18.70;52.80
12977;DHT22;6553;48.412;9.514;2023-04-25T06:28:54;18.70;52.80
12977;DHT22;6553;48.412;9.514;2023-04-25T06:31:20;18.70;52.80
12977;DHT22;6553;48.412;9.514;2023-04-25T06:33:47;18.70;52.80
12977;DHT22;6553;48.412;9.514;2023-04-25T06:36:14;18.70;52.80
12977;DHT22;6553;48.412;9.514;2023-04-25T06:38:41;18.70;52.80
12977;DHT22;6553;48.412;9.514;2023-04-25T06:41:07;18.70;52.80
12977;DHT22;6553;48.412;9.514;2023-04-25T06:43:35;18.70;52.80
12977;DHT22;6553;48.412;9.514;2023-04-25T06:46:10;18.70;52.80
12977;DHT22;6553;48.412;9.514;2023-04-25T06:48:41;18.70;52.80
12977;DHT22;6553;48.412;9.514;2023-04-25T06:51:07;18.70;52.90
12977;DHT22;6553;48.412;9.514;2023-04-25T06:53:34;18.70;52.80
12977;DHT22;6553;48.412;9.514;2023-04-25T06:56:03;18.70;52.80
12977;DHT22;6553;48.412;9.514;2023-04-25T06:58:40;18.70;52.80
12977;DHT22;6553;48.412;9.514;2023-04-25T07:01:13;18.70;52.80
12977;DHT22;6553;48.412;9.514;2023-04-25T07:03:39;18.70;52.80
12977;DHT22;6553;48.412;9.514;2023-04-25T07:06:11;18.70;52.90
12977;DHT22;6553;48.412;9.514;2023-04-25T07:08:37;18.70;52.80
12977;DHT22;6553;48.412;9.514;2023-04-25T07:11:03;18.70;52.90
12977;DHT22;6553;48.412;9.514;2023-04-25T07:13:29;18.70;52.90
12977;DHT22;6553;48.412;9.514;2023-04-25T07:15:55;18.70;52.90
12977;DHT22;6553;48.412;9.514;2023-04-25T07:18:22;18.70;53.00
12977;DHT22;6553;48.412;9.514;2023-04-25T07:20:49;18.70;52.90
12977;DHT22;6553;48.412;9.514;2023-04-25T07:23:14;18.70;52.90
12977;DHT22;6553;48.412;9.514;2023-04-25T07:25:41;18.70;52.90
12977;DHT22;6553;48.412;9.514;2023-04-25T07:28:07;18.70;52.80
12977;DHT22;6553;48.412;9.514;2023-04-25T07:30:33;18.70;52.80
12977;DHT22;6553;48.412;9.514;2023-04-25T07:33:03;18.70;52.80
12977;DHT22;6553;48.412;9.514;2023-04-25T07:35:28;18.70;52.80
12977;DHT22;6553;48.412;9.514;2023-04-25T07:37:54;18.70;52.80
12977;DHT22;6553;48.412;9.514;2023-04-25T07:40:21;18.80;52.90
12977;DHT22;6553;48.412;9.514;2023-04-25T07:42:51;18.70;52.90
12977;DHT22;6553;48.412;9.514;2023-04-25T07:45:23;18.80;52.90
12977;DHT22;6553;48.412;9.514;2023-04-25T07:47:50;18.70;52.80
12977;DHT22;6553;48.412;9.514;2023-04-25T07:50:16;18.80;52.90
12977;DHT22;6553;48.412;9.514;2023-04-25T07:52:42;18.70;52.80
12977;DHT22;6553;48.412;9.514;2023-04-25T07:55:17;18.70;52.80
12977;DHT22;6553;48.412;9.514;2023-04-25T07:57:56;18.80;52.90
12977;DHT22;6553;48.412;9.514;2023-04-25T08:00:21;18.70;52.80
12977;DHT22;6553;48.412;9.514;2023-04-25T08:02:56;18.70;52.80
12977;DHT22;6553;48.412;9.514;2023-04-25T08:05:22;18.70;52.80
12977;DHT22;6553;48.412;9.514;2023-04-25T08:07:53;18.70;52.80
12977;DHT22;6553;48.412;9.514;2023-04-25T08:10:19;18.70;52.80
12977;DHT22;6553;48.412;9.514;2023-04-25T08:12:47;18.70;52.80
12977;DHT22;6553;48.412;9.514;2023-04-25T08:15:13;18.70;52.90
12977;DHT22;6553;48.412;9.514;2023-04-25T08:17:39;18.80;53.00
12977;DHT22;6553;48.412;9.514;2023-04-25T08:20:06;18.80;53.00
12977;DHT22;6553;48.412;9.514;2023-04-25T08:22:33;18.70;52.90
12977;DHT22;6553;48.412;9.514;2023-04-25T08:25:22;18.80;53.20
12977;DHT22;6553;48.412;9.514;2023-04-25T08:27:48;18.80;53.00
12977;DHT22;6553;48.412;9.514;2023-04-25T08:30:15;18.80;53.00
12977;DHT22;6553;48.412;9.514;2023-04-25T08:32:42;18.80;53.00
12977;DHT22;6553;48.412;9.514;2023-04-25T08:35:28;18.80;53.10
12977;DHT22;6553;48.412;9.514;2023-04-25T08:37:55;18.80;53.00
12977;DHT22;6553;48.412;9.514;2023-04-25T08:40:22;18.80;53.00
12977;DHT22;6553;48.412;9.514;2023-04-25T08:42:57;18.80;53.20
12977;DHT22;6553;48.412;9.514;2023-04-25T08:45:24;18.80;53.40
12977;DHT22;6553;48.412;9.514;2023-04-25T08:47:54;18.80;53.20
12977;DHT22;6553;48.412;9.514;2023-04-25T08:50:23;18.80;53.20
12977;DHT22;6553;48.412;9.514;2023-04-25T08:52:53;18.80;53.20
12977;DHT22;6553;48.412;9.514;2023-04-25T08:55:21;18.80;53.20
12977;DHT22;6553;48.412;9.514;2023-04-25T08:57:51;18.80;53.30
12977;DHT22;6553;48.412;9.514;2023-04-25T09:00:19;18.80;53.20
12977;DHT22;6553;48.412;9.514;2023-04-25T09:02:47;18.80;53.30
12977;DHT22;6553;48.412;9.514;2023-04-25T09:05:13;18.80;53.30
12977;DHT22;6553;48.412;9.514;2023-04-25T09:07:40;18.80;53.30
12977;DHT22;6553;48.412;9.514;2023-04-25T09:10:06;18.80;53.30
12977;DHT22;6553;48.412;9.514;2023-04-25T09:12:35;18.70;53.20
12977;DHT22;6553;48.412;9.514;2023-04-25T09:17:57;18.70;53.10
12977;DHT22;6553;48.412;9.514;2023-04-25T09:20:27;18.80;53.30
12977;DHT22;6553;48.412;9.514;2023-04-25T09:23:05;18.70;53.10
12977;DHT22;6553;48.412;9.514;2023-04-25T09:25:37;18.70;53.10
12977;DHT22;6553;48.412;9.514;2023-04-25T09:28:06;18.70;53.10
12977;DHT22;6553;48.412;9.514;2023-04-25T09:30:34;18.80;53.20
12977;DHT22;6553;48.412;9.514;2023-04-25T09:33:10;18.70;53.10
12977;DHT22;6553;48.412;9.514;2023-04-25T09:35:44;18.80;53.20
12977;DHT22;6553;48.412;9.514;2023-04-25T09:38:22;18.80;53.20
12977;DHT22;6553;48.412;9.514;2023-04-25T09:41:23;18.70;53.10
12977;DHT22;6553;48.412;9.514;2023-04-25T09:43:49;18.70;53.10
12977;DHT22;6553;48.412;9.514;2023-04-25T09:46:16;18.80;53.20
12977;DHT22;6553;48.412;9.514;2023-04-25T09:48:51;18.80;53.20
12977;DHT22;6553;48.412;9.514;2023-04-25T09:51:26;18.70;53.20
12977;DHT22;6553;48.412;9.514;2023-04-25T09:53:53;18.80;53.20
12977;DHT22;6553;48.412;9.514;2023-04-25T09:56:34;18.80;53.20
12977;DHT22;6553;48.412;9.514;2023-04-25T09:59:05;18.80;53.20
12977;DHT22;6553;48.412;9.514;2023-04-25T10:01:33;18.80;53.30
12977;DHT22;6553;48.412;9.514;2023-04-25T10:04:28;18.80;53.20
12977;DHT22;6553;48.412;9.514;2023-04-25T10:07:02;18.80;53.30
12977;DHT22;6553;48.412;9.514;2023-04-25T10:09:32;18.80;53.30
12977;DHT22;6553;48.412;9.514;2023-04-25T10:12:02;18.80;53.30
12977;DHT22;6553;48.412;9.514;2023-04-25T10:14:30;18.80;53.30
12977;DHT22;6553;48.412;9.514;2023-04-25T10:16:58;18.80;53.30
12977;DHT22;6553;48.412;9.514;2023-04-25T10:19:25;18.80;53.30
12977;DHT22;6553;48.412;9.514;2023-04-25T10:22:44;18.80;53.30
12977;DHT22;6553;48.412;9.514;2023-04-25T10:25:01;18.80;53.30
12977;DHT22;6553;48.412;9.514;2023-04-25T10:27:30;18.80;53.30
12977;DHT22;6553;48.412;9.514;2023-04-25T10:30:07;18.80;53.30
12977;DHT22;6553;48.412;9.514;2023-04-25T10:32:36;18.80;53.30
12977;DHT22;6553;48.412;9.514;2023-04-25T10:35:17;18.80;53.30
12977;DHT22;6553;48.412;9.514;2023-04-25T10:38:24;18.70;53.20
12977;DHT22;6553;48.412;9.514;2023-04-25T10:41:08;18.80;53.30
12977;DHT22;6553;48.412;9.514;2023-04-25T10:43:38;18.70;53.20
12977;DHT22;6553;48.412;9.514;2023-04-25T10:48:52;18.80;53.30
12977;DHT22;6553;48.412;9.514;2023-04-25T10:51:30;18.80;53.30
12977;DHT22;6553;48.412;9.514;2023-04-25T10:54:05;18.80;53.20
12977;DHT22;6553;48.412;9.514;2023-04-25T10:56:33;18.80;53.20
12977;DHT22;6553;48.412;9.514;2023-04-25T10:59:12;18.80;53.30
12977;DHT22;6553;48.412;9.514;2023-04-25T11:01:44;18.80;53.20
12977;DHT22;6553;48.412;9.514;2023-04-25T11:04:31;18.80;53.20
12977;DHT22;6553;48.412;9.514;2023-04-25T11:07:20;18.80;53.20
12977;DHT22;6553;48.412;9.514;2023-04-25T11:10:02;18.80;53.20
12977;DHT22;6553;48.412;9.514;2023-04-25T11:12:30;18.80;53.10
12977;DHT22;6553;48.412;9.514;2023-04-25T11:15:02;18.80;53.10
12977;DHT22;6553;48.412;9.514;2023-04-25T11:17:32;18.80;53.20
12977;DHT22;6553;48.412;9.514;2023-04-25T11:19:59;18.80;53.20
12977;DHT22;6553;48.412;9.514;2023-04-25T11:22:27;18.80;53.20
12977;DHT22;6553;48.412;9.514;2023-04-25T11:24:53;18.80;53.20
12977;DHT22;6553;48.412;9.514;2023-04-25T11:27:19;18.80;53.20
12977;DHT22;6553;48.412;9.514;2023-04-25T11:29:46;18.80;53.20
12977;DHT22;6553;48.412;9.514;2023-04-25T11:32:15;18.80;53.20
12977;DHT22;6553;48.412;9.514;2023-04-25T11:34:44;18.80;53.20
12977;DHT22;6553;48.412;9.514;2023-04-25T11:37:10;18.80;53.20
12977;DHT22;6553;48.412;9.514;2023-04-25T11:39:43;18.80;53.20
12977;DHT22;6553;48.412;9.514;2023-04-25T11:42:11;18.80;53.20
12977;DHT22;6553;48.412;9.514;2023-04-25T11:44:38;18.80;53.30
12977;DHT22;6553;48.412;9.514;2023-04-25T11:47:05;18.80;53.20
12977;DHT22;6553;48.412;9.514;2023-04-25T11:49:31;18.80;53.20
12977;DHT22;6553;48.412;9.514;2023-04-25T11:51:57;18.80;53.20
12977;DHT22;6553;48.412;9.514;2023-04-25T11:54:23;18.80;53.80
12977;DHT22;6553;48.412;9.514;2023-04-25T11:56:49;18.80;53.30
12977;DHT22;6553;48.412;9.514;2023-04-25T11:59:15;18.80;53.30
12977;DHT22;6553;48.412;9.514;2023-04-25T12:01:48;18.80;53.20
12977;DHT22;6553;48.412;9.514;2023-04-25T12:04:22;18.90;53.30
12977;DHT22;6553;48.412;9.514;2023-04-25T12:06:55;18.90;53.30
12977;DHT22;6553;48.412;9.514;2023-04-25T12:09:28;18.90;53.30
12977;DHT22;6553;48.412;9.514;2023-04-25T12:11:57;18.90;53.40
12977;DHT22;6553;48.412;9.514;2023-04-25T12:14:29;18.90;53.30
12977;DHT22;6553;48.412;9.514;2023-04-25T12:16:58;18.90;53.40
12977;DHT22;6553;48.412;9.514;2023-04-25T12:19:32;18.90;53.30
12977;DHT22;6553;48.412;9.514;2023-04-25T12:22:01;18.90;53.30
12977;DHT22;6553;48.412;9.514;2023-04-25T12:24:28;18.90;53.40
12977;DHT22;6553;48.412;9.514;2023-04-25T12:29:29;18.90;53.30
12977;DHT22;6553;48.412;9.514;2023-04-25T12:31:57;18.90;53.30
12977;DHT22;6553;48.412;9.514;2023-04-25T12:34:24;18.90;53.30
12977;DHT22;6553;48.412;9.514;2023-04-25T12:36:51;18.90;53.90
12977;DHT22;6553;48.412;9.514;2023-04-25T12:39:19;18.90;53.20
12977;DHT22;6553;48.412;9.514;2023-04-25T12:41:48;18.90;53.20
12977;DHT22;6553;48.412;9.514;2023-04-25T12:44:15;18.90;53.80
12977;DHT22;6553;48.412;9.514;2023-04-25T12:46:41;18.90;53.20
12977;DHT22;6553;48.412;9.514;2023-04-25T12:49:08;18.90;53.20
12977;DHT22;6553;48.412;9.514;2023-04-25T12:51:35;18.90;53.30
12977;DHT22;6553;48.412;9.514;2023-04-25T12:54:01;19.00;53.40
12977;DHT22;6553;48.412;9.514;2023-04-25T12:56:28;18.90;53.30
12977;DHT22;6553;48.412;9.514;2023-04-25T12:58:55;18.90;53.30
12977;DHT22;6553;48.412;9.514;2023-04-25T13:01:21;18.90;53.30
12977;DHT22;6553;48.412;9.514;2023-04-25T13:03:47;18.90;54.00
12977;DHT22;6553;48.412;9.514;2023-04-25T13:06:14;18.90;53.30
12977;DHT22;6553;48.412;9.514;2023-04-25T13:08:41;18.90;53.30
12977;DHT22;6553;48.412;9.514;2023-04-25T13:11:08;18.90;53.30
12977;DHT22;6553;48.412;9.514;2023-04-25T13:13:34;19.00;53.40
12977;DHT22;6553;48.412;9.514;2023-04-25T13:16:01;18.90;53.30
12977;DHT22;6553;48.412;9.514;2023-04-25T13:18:28;19.00;53.50
12977;DHT22;6553;48.412;9.514;2023-04-25T13:20:54;19.00;53.60
12977;DHT22;6553;48.412;9.514;2023-04-25T13:23:21;19.00;53.50
12977;DHT22;6553;48.412;9.514;2023-04-25T13:25:47;19.00;53.50
12977;DHT22;6553;48.412;9.514;2023-04-25T13:28:13;19.00;53.50
12977;DHT22;6553;48.412;9.514;2023-04-25T13:30:40;19.00;53.50
12977;DHT22;6553;48.412;9.514;2023-04-25T13:33:06;19.00;53.60
12977;DHT22;6553;48.412;9.514;2023-04-25T13:35:33;19.00;53.60
12977;DHT22;6553;48.412;9.514;2023-04-25T13:38:00;19.00;53.40
12977;DHT22;6553;48.412;9.514;2023-04-25T13:40:26;19.00;53.60
12977;DHT22;6553;48.412;9.514;2023-04-25T13:42:53;19.00;53.60
12977;DHT22;6553;48.412;9.514;2023-04-25T13:45:19;19.00;53.50
12977;DHT22;6553;48.412;9.514;2023-04-25T13:47:46;19.00;53.50
12977;DHT22;6553;48.412;9.514;2023-04-25T13:50:12;19.00;53.50
12977;DHT22;6553;48.412;9.514;2023-04-25T13:52:39;19.00;53.60
12977;DHT22;6553;48.412;9.514;2023-04-25T13:55:06;19.00;53.60
12977;DHT22;6553;48.412;9.514;2023-04-25T13:57:34;19.00;53.50
12977;DHT22;6553;48.412;9.514;2023-04-25T14:00:01;19.10;53.60
12977;DHT22;6553;48.412;9.514;2023-04-25T14:02:34;19.00;53.40
12977;DHT22;6553;48.412;9.514;2023-04-25T14:05:01;19.10;53.60
12977;DHT22;6553;48.412;9.514;2023-04-25T14:07:28;19.00;53.50
12977;DHT22;6553;48.412;9.514;2023-04-25T14:09:54;19.10;53.60
12977;DHT22;6553;48.412;9.514;2023-04-25T14:12:20;19.10;53.70
12977;DHT22;6553;48.412;9.514;2023-04-25T14:14:45;19.10;53.60
12977;DHT22;6553;48.412;9.514;2023-04-25T14:17:11;19.10;53.60
12977;DHT22;6553;48.412;9.514;2023-04-25T14:19:38;19.10;53.60
12977;DHT22;6553;48.412;9.514;2023-04-25T14:22:08;19.00;53.60
12977;DHT22;6553;48.412;9.514;2023-04-25T14:24:34;19.00;53.60
12977;DHT22;6553;48.412;9.514;2023-04-25T14:27:00;19.00;53.60
12977;DHT22;6553;48.412;9.514;2023-04-25T14:29:26;19.00;53.60
12977;DHT22;6553;48.412;9.514;2023-04-25T14:31:52;19.00;53.60
12977;DHT22;6553;48.412;9.514;2023-04-25T14:34:19;19.00;53.60
12977;DHT22;6553;48.412;9.514;2023-04-25T14:36:45;19.00;53.60
12977;DHT22;6553;48.412;9.514;2023-04-25T14:39:11;19.00;53.60
12977;DHT22;6553;48.412;9.514;2023-04-25T14:41:38;19.00;53.70
12977;DHT22;6553;48.412;9.514;2023-04-25T14:44:03;19.00;53.60
12977;DHT22;6553;48.412;9.514;2023-04-25T14:46:29;19.00;53.60
12977;DHT22;6553;48.412;9.514;2023-04-25T14:48:55;19.00;53.60
12977;DHT22;6553;48.412;9.514;2023-04-25T14:51:21;19.00;53.60
12977;DHT22;6553;48.412;9.514;2023-04-25T14:53:47;19.00;53.60
12977;DHT22;6553;48.412;9.514;2023-04-25T14:56:13;19.00;53.60
12977;DHT22;6553;48.412;9.514;2023-04-25T14:58:39;19.10;53.70
12977;DHT22;6553;48.412;9.514;2023-04-25T15:01:06;19.10;53.70
12977;DHT22;6553;48.412;9.514;2023-04-25T15:03:32;19.00;53.60
12977;DHT22;6553;48.412;9.514;2023-04-25T15:05:58;19.00;53.60
12977;DHT22;6553;48.412;9.514;2023-04-25T15:08:24;19.00;53.60
12977;DHT22;6553;48.412;9.514;2023-04-25T15:10:50;19.00;53.60
12977;DHT22;6553;48.412;9.514;2023-04-25T15:13:18;19.00;53.60
12977;DHT22;6553;48.412;9.514;2023-04-25T15:15:44;19.00;53.60
12977;DHT22;6553;48.412;9.514;2023-04-25T15:18:19;19.00;53.60
12977;DHT22;6553;48.412;9.514;2023-04-25T15:20:52;19.00;53.60
12977;DHT22;6553;48.412;9.514;2023-04-25T15:23:19;19.00;53.60
12977;DHT22;6553;48.412;9.514;2023-04-25T15:25:46;19.00;53.60
12977;DHT22;6553;48.412;9.514;2023-04-25T15:28:12;19.00;53.60
12977;DHT22;6553;48.412;9.514;2023-04-25T15:30:43;19.00;53.60
12977;DHT22;6553;48.412;9.514;2023-04-25T15:33:09;19.00;53.60
12977;DHT22;6553;48.412;9.514;2023-04-25T15:35:34;19.00;53.60
12977;DHT22;6553;48.412;9.514;2023-04-25T15:38:00;19.00;53.60
12977;DHT22;6553;48.412;9.514;2023-04-25T15:40:26;19.00;53.70
12977;DHT22;6553;48.412;9.514;2023-04-25T15:42:53;19.00;54.20
12977;DHT22;6553;48.412;9.514;2023-04-25T15:45:23;19.00;53.60
12977;DHT22;6553;48.412;9.514;2023-04-25T15:47:55;19.00;53.60
12977;DHT22;6553;48.412;9.514;2023-04-25T15:50:21;19.00;53.60
12977;DHT22;6553;48.412;9.514;2023-04-25T15:52:49;19.00;53.60
12977;DHT22;6553;48.412;9.514;2023-04-25T15:55:16;19.00;53.60
12977;DHT22;6553;48.412;9.514;2023-04-25T15:57:43;19.00;53.70
12977;DHT22;6553;48.412;9.514;2023-04-25T16:00:09;19.00;53.60
12977;DHT22;6553;48.412;9.514;2023-04-25T16:02:41;19.00;53.60
12977;DHT22;6553;48.412;9.514;2023-04-25T16:05:07;19.00;53.60
12977;DHT22;6553;48.412;9.514;2023-04-25T16:07:35;19.00;53.60